メインページ
METAR-TAF:

METAR-TAF

空港 :

カルガリー国際空港

カルガリー, アルバータ州, カナダ

緯度: 51-07N, 経度: 114-01W, 海抜: 1077m

現時点の気象観測

当レポートは48分前の23:00(UTC)に作成
の風 9kt
気温 4°C
湿度 93%
気圧 1017 hPa
視程: 2.4km
高度600ftの曇り
小霧雨, 靄

METAR: CYYC 212300Z 36009KT 1 1/2SM -DZ BR OVC006 04/03 A3004 RMK FG3ST5 SLP209

時間: 17:48 (23:48 UTC)

予報

当レポートは3時間10分前の20:38(UTC)に作成
予報は21日の 21時(UTC)から 22日の 18時(UTC)まで有効
の風 12kt
視程: 10km
高度1200ftの曇り
21日の 21時(UTC)から 21日の 24時(UTC)まで一時的に
視程: 6.4km
高度800ftの曇り
小雨, 靄
22日の 0000時(UTC)から
北/北東の風 12kt
視程: 10km
高度800ftの曇り
小雨
22日の 00時(UTC)から 22日の 03時(UTC)まで一時的に
視程: 3.2km
高度400ftの曇り
小雨, 雪, 靄
22日の 0300時(UTC)から
東/北東の風 10kt
視程: 9.7km
高度800ftの曇り
小雪
22日の 03時(UTC)から 22日の 14時(UTC)まで一時的に
視程: 1.6km
高度400ftの曇り
弱いにわか雪
22日の 1400時(UTC)から
北/北東の風 10kt
視程: 8.0km
高度800ftの曇り
小雪
確率 30%
22日の 14時(UTC)から 22日の 18時(UTC)まで
視程: 3.2km
(弱い) 着氷性, 霧雨, 靄

TAF: CYYC 212038Z 2121/2218 35012KT P6SM OVC012 TEMPO 2121/2124 4SM -RA BR OVC008 FM220000 02012KT P6SM -RA OVC008 TEMPO 2200/2203 2SM -RASN BR OVC004 FM220300 06010KT 6SM -SN OVC008 TEMPO 2203/2214 1SM -SHSN OVC004 FM221400 03010KT 5SM -SN OVC008 PROB30 2214/2218 2SM -FZDZ BR RMK NXT FCST BY 220000Z

4,000以上の空港の気象観測と天気予報(METAR報とTAF報)

利用可能な観測所は地図上に黄色い丸と赤い丸で示す。

丸の上にカーソルを重ねると観測所名を参照できる。

次にクリックすると気象観測と天気予報を参照できる。

マップの切り替え:黒色「×」印の緑ボタンをクリックして拡大、「-」印の緑ボタンをクリックして縮小、緑色の三角印をクリックして隣りの地図に切り替え


METAR-TAF: